ACT        NSW        VIC        QLD        SA        WA        TAS        NT        INFO        CALC            by VK5ZD

  Atmospheric Gas Attenuation - ITU Rec 676-11   --------------- db/100km ---------------
SA Stations Date Time Temp RH % AH g/m3 Dew Point Wind Direction Speed kph Gust kph Barometer mB Rainfall Since 9am 24GHz 47GHz 76GHz 122GHz 134GHz 241GHz
ADELAIDE AIRPORT 03 07:40 16.9 61 8.77 9.3 11 15 1021.7 0 19.8 25.6 39.3 103.1 97.4 335.3
ADELAIDE WEST TERRACE 03 07:40 16.7 59 8.38 8.7 2 4 1021.4 0 19.0 25.0 37.9 99.3 92.7 318.7
CAPE BORDA AWS 03 07:40 13.9 81 9.71 10.7 17 19 1022.5 0 21.9 28.1 44.7 117.5 114.1 393.2
CAPE JAFFA 03 07:40 14.1 79 9.59 10.5 4 4 1013.1 0 21.7 27.4 43.7 114.8 111.3 383.6
CAPE WILLOUGHBY 03 07:40 15.5 72 9.52 10.6 11 13 1013.1 0 21.5 26.9 42.6 112.0 108.3 373.5
CEDUNA 03 07:40 15.4 62 8.15 8.2 19 22 1021.5 0 18.5 25.0 37.6 98.5 91.3 313.6
CLARE AWS 03 07:40 12.2 76 8.2 8.1 15 17 1018.9 0 18.8 25.9 39.2 102.8 95.5 328.2
CLEVE AWS 03 07:40 15.3 68 8.88 9.4 30 33 1020.8 0 20.1 26.2 40.5 106.2 100.8 347.0
COOBER PEDY AWS 03 07:40 21.9 47 9.07 10.1 24 30 1015.2 0 20.2 24.4 37.8 99.1 94.5 326.0
COONAWARRA AWS 03 07:40 13.6 78 9.18 9.9 7 9 1021.3 0 20.8 27.2 42.6 111.9 107.1 368.9
CTA 2 CULTANA TRAINING AREA [T 03 07:40 14.8 66 8.36 8.5 26 32 1013.1 0 19.0 25.2 38.3 100.6 94.0 323.3
CUMMINS AERO 03 07:40 16.8 63 9.01 9.7 19 24 1021.8 0 20.3 26.0 40.3 105.7 100.6 346.6
EDINBURGH AP 03 07:40 14.9 66 8.41 8.6 0 0 1021.8 0 19.1 25.6 38.9 101.9 95.2 327.4
EDITHBURGH AWS 03 07:40 16.8 66 9.44 10.4 9 11 1013.1 0 21.2 26.4 41.6 109.3 105.5 363.7
ERNABELLA 03 07:40 24.9 36 8.24 8.8 0 0 1013.4 0 18.3 22.4 33.5 87.7 81.5 280.5
HINDMARSH IS 03 07:40 15.9 72 9.75 10.9 6 6 1021.3 0 21.9 27.4 43.7 114.8 111.6 384.8
KADINA AWS 03 07:40 15.4 70 9.2 10 17 20 1020.9 0 20.8 26.7 41.7 109.5 104.9 361.3
KEITH AWS 03 07:40 12.9 72 8.12 8.1 4 4 1013.1 0 18.6 25.4 38.3 100.5 93.2 320.1
KINGSCOTE AP 03 07:40 14.2 86 10.5 11.9 6 6 1022.1 0 23.6 29.3 47.9 125.9 124.6 430.1
KUITPO AWS 03 07:40 13.4 74 8.6 8.9 13 15 1019.3 0 19.6 26.2 40.3 105.6 99.4 341.9
LAMEROO AWS 03 07:40 13.7 68 8.05 7.9 15 19 1013.1 0 18.4 25.0 37.7 98.7 91.3 313.7
LEIGH CREEK 03 07:40 23 36 7.4 7.1 32 35 1014.9 0 16.6 21.8 31.4 82.1 74.0 254.0
LOXTON AWS 03 07:40 14 66 7.96 7.8 9 13 1020.9 0 18.2 25.1 37.5 98.2 90.4 310.4
MARREE AP 03 07:40 24.1 47 10.28 12.1 17 17 1015.4 0 22.6 25.6 41.2 108.2 106.4 367.8
MINLATON AWS 03 07:40 17.6 53 7.95 7.9 20 22 1021.7 0 18.0 24.1 35.9 93.8 86.3 296.5
MINNIPA AWS 03 07:40 13.5 74 8.66 9 26 30 1019.9 0 19.7 26.3 40.5 106.2 100.1 344.4
MOOMBA AP 03 07:40 30 30 9.1 10.5 15 17 1013.6 0 19.9 22.4 34.3 89.9 85.7 295.9
MT CRAWFORD AWS 03 07:40 11.2 82 8.31 8.2 24 30 1019 0 19.1 26.4 40.2 105.4 98.3 337.7
MT GAMBIER 03 07:40 12.8 83 9.3 10 7 7 1021.3 0 21.1 27.7 43.6 114.4 109.9 378.5
MT LOFTY AWS 03 07:40 10.6 84 8.2 8 9 13 1013.1 0 18.9 26.2 39.8 104.3 97.1 333.4
MURRAY BRIDGE AP 03 07:40 15.6 70 9.31 10.2 0 0 1021.8 0 21.0 26.8 42.1 110.5 106.2 365.8
NARACOORTE AP 03 07:40 13.7 76 9 9.6 4 7 1021.2 0 20.4 26.9 41.8 109.8 104.5 359.9
NOARLUNGA AWS 03 07:40 16.6 67 9.46 10.4 7 11 1013.1 0 21.3 26.5 41.8 109.8 106.0 365.5
NULLARBOR 03 07:40 16.3 98 13.6 16 28 32 1020.4 0 30.1 34.0 60.2 158.7 165.8 574.1
NURIOOTPA AWS 03 07:40 13.3 78 9.01 9.5 13 17 1020.5 0 20.5 27.0 42.1 110.4 105.2 362.0
OODNADATTA AWS 03 07:40 26.1 42 10.28 12.5 26 28 1013.7 0 22.5 25.0 40.1 105.4 103.6 358.3
PADTHAWAY SOUTH 03 07:40 11.3 80 8.16 8 7 7 1013.1 0 18.8 25.9 39.3 103.0 95.7 328.6
PARAFIELD AP 03 07:40 15.6 67 8.91 9.5 4 6 1021.6 0 20.2 26.2 40.5 106.2 100.9 347.3
PARAWA AWS 03 07:40 13.3 93 10.75 12.2 7 7 1013.1 0 24.2 29.7 49.1 129.2 128.8 444.5
PARNDANA CFS AWS 03 07:40 14.8 76 9.63 10.6 11 11 1013.1 0 21.7 27.3 43.4 114.2 110.8 382.0
POINT AVOID 03 07:40 15.3 90 11.75 13.6 15 17 1013.1 0 26.3 30.7 52.2 137.5 139.6 482.7
PORT AUGUSTA AP 03 07:40 16.9 57 8.2 8.3 30 33 1017.9 0 18.6 24.6 36.9 96.8 89.9 309.0
PORT PIRIE AERODROME AWS 03 07:40 14.7 63 7.93 7.7 26 28 1019.2 0 18.1 24.8 37.0 96.9 89.1 305.9
PT LINCOLN AWS 03 07:40 17.5 59 8.8 9.4 19 20 1022.4 0 19.8 25.5 39.2 102.7 97.1 334.3
ROBE AIRFIELD 03 07:40 15.3 75 9.79 10.9 6 7 1013.1 0 22.1 27.4 43.8 115.2 112.2 387.1
ROSEWORTHY AWS 03 07:40 14.5 70 8.71 9.1 9 11 1021 0 19.8 26.2 40.2 105.5 99.6 342.7
ROXBY DOWNS AWS 03 07:40 19.7 46 7.81 7.8 13 17 1016.7 0 17.6 23.2 34.2 89.6 82.0 281.8
SNOWTOWN AWS 03 07:40 13.9 69 8.27 8.3 20 22 1020.5 0 18.9 25.6 38.8 101.6 94.5 324.8
STENHOUSE BAY 03 07:40 16.4 67 9.35 10.4 11 13 1013.1 0 21.1 26.3 41.5 108.9 104.8 361.4
STRATHALBYN AWS 03 07:40 15.8 61 8.21 8.3 9 11 1021.3 0 18.7 25.0 37.6 98.6 91.5 314.7
TARCOOLA 03 07:40 19 50 8.15 8.4 17 20 1018.3 0 18.4 23.9 35.8 93.9 87.0 299.0
WHYALLA AP 03 07:40 16.2 64 8.83 9.4 24 35 1019.7 0 20.0 25.8 39.8 104.4 98.9 340.5
WOOMERA 03 07:40 17.1 53 7.71 7.5 26 32 1017.1 0 17.5 23.7 35.0 91.6 83.5 286.8
WUDINNA AP 03 07:40 13.2 78 8.96 9.5 15 17 1021.1 0 20.4 27.0 41.9 110.0 104.7 360.2
YUNTA 03 07:40 13.2 64 7.35 6.5 19 22 1013.1 0 16.9 24.1 35.2 92.0 82.9 284.1

Last Refresh: 03-Dec-2021 07:50:33

Bureau of Meteorology